world map with LEBT marked

LEBT - Heliport

This information may not be accurate or current and is not valid for navigation or flight planning. No warranty of fitness for any purpose is made or implied.

flag of Valencianaflag of Spain

Donate via PayPal

Additional information is available on the NEW Great Circle Mapper

Location
City:  Valencia, Valenciana, Spain
Near (Alt.):Bétera
ICAO:LEBT

Details
Type:Heliport
Latitude:39°37'28"N (39.624444)
Longitude:0°28'21"W (-0.472499)
Helipads:1
Largest:886 × 98 ft (270 × 30 m)

Weather
METAR:LEBT  041400Z AUTO 14003KT 060V210 9999 NCD 17/M07 Q1025

Related Locations
Nearby:
Farthest:GIS: 12330 mi / 19844 km
Gisborne, GIS, NZ

Find:

   beyond  
but within

Other Information
Maps:
Sources:

  


 


Great Circle Mapper   Great Circle Mapper
Great Circle Mapper FAQ   Great Circle Mapper FAQ
  Karl's Home Page
KLS˛   KLS˛ Home
   GC on Facebook
Airlines of the World   Airlines of the World
Donate via PayPal


Copyright © 2004-2019, Karl L. Swartz. All rights reserved.
All trademarks mentioned herein belong to their respective owners.

Please see credits for attribution and copyright information.

Karl Swartz <karl@kls2.com>
  Powered by FreeBSD
Valid HTML 4.01!
Labeled with ICRA
hCard Microformat
Geo Microformat